Huvudsida
METAR-TAF:

METAR-TAF

Flygplatser :

Guernsey Airport

Guernsey,

latitud: 49-26N, longitud: 002-36W, höjd: 102 m

Aktuellt väderrapport

Denna rapport gjordes för 12 minuter sedan, klockan 20:50 UTC
Vind 6 kt från ost/nordost
Temperatur 16°C
Fuktighet 63%
Tryck 1033 hPa
Sikt 10 km eller mer
Inga moln under 1 500 m eller inga cumulonimbus

METAR: EGJB 272050Z 07006KT CAVOK 16/09 Q1033

Tid: 22:02 (21:02 UTC)

Väderprognos

Denna rapport gjordes för 1 timme och 6 minuter sedan, klockan 19:56 UTC
Prognos gäller från 27 kl. 21 UTC till 28 kl. 06 UTC
Vind 7 kt från ost/nordost
Sikt 10 km eller mer
Inga moln under 1 500 m eller inga cumulonimbus

TAF: EGJB 271956Z 2721/2806 07007KT CAVOK

Aktuella väderrapporter och prognoser från 4000 flygplatser (METAR- och TAF-rapporter).

De tillgängliga stationerna syns som gula och röda prickar på kartan.

För musen över prickarna för att se namnen på stationerna.

Klicka sedan för att få väderrapporter och prognoser.

För att ändra kartan: Klicka på de gröna knapparna med ett svart kors på för att zooma in; den gröna knappen med ett streck på för att zooma ut; eller på de gröna pilarna för angränsande kartor.


METAR-TAF: